sensor_id;sensor_type;location;lat;lon;timestamp;P1;durP1;ratioP1;P2;durP2;ratioP2
37451;SDS011;23314;51.114;6.900;2023-03-01T00:01:47;14.57;;;9.90;;
37451;SDS011;23314;51.114;6.900;2023-03-01T00:04:12;15.10;;;10.13;;
37451;SDS011;23314;51.114;6.900;2023-03-01T00:06:37;13.07;;;8.90;;
37451;SDS011;23314;51.114;6.900;2023-03-01T00:09:03;17.77;;;9.20;;
37451;SDS011;23314;51.114;6.900;2023-03-01T00:11:30;14.80;;;9.53;;
37451;SDS011;23314;51.114;6.900;2023-03-01T00:13:57;17.80;;;9.53;;
37451;SDS011;23314;51.114;6.900;2023-03-01T00:16:28;12.20;;;9.30;;
37451;SDS011;23314;51.114;6.900;2023-03-01T00:18:55;16.10;;;9.70;;
37451;SDS011;23314;51.114;6.900;2023-03-01T00:21:21;13.00;;;9.77;;
37451;SDS011;23314;51.114;6.900;2023-03-01T00:23:48;16.20;;;10.03;;
37451;SDS011;23314;51.114;6.900;2023-03-01T00:26:17;11.80;;;8.90;;
37451;SDS011;23314;51.114;6.900;2023-03-01T00:28:44;14.80;;;9.70;;
37451;SDS011;23314;51.114;6.900;2023-03-01T00:31:11;12.57;;;9.33;;
37451;SDS011;23314;51.114;6.900;2023-03-01T00:33:38;14.67;;;9.70;;
37451;SDS011;23314;51.114;6.900;2023-03-01T00:36:04;15.87;;;10.50;;
37451;SDS011;23314;51.114;6.900;2023-03-01T00:38:30;16.93;;;10.83;;
37451;SDS011;23314;51.114;6.900;2023-03-01T00:41:03;15.50;;;10.63;;
37451;SDS011;23314;51.114;6.900;2023-03-01T00:43:30;14.37;;;9.30;;
37451;SDS011;23314;51.114;6.900;2023-03-01T00:45:55;18.37;;;10.33;;
37451;SDS011;23314;51.114;6.900;2023-03-01T00:48:21;13.30;;;9.90;;
37451;SDS011;23314;51.114;6.900;2023-03-01T00:50:46;14.37;;;10.47;;
37451;SDS011;23314;51.114;6.900;2023-03-01T00:53:11;14.77;;;10.23;;
37451;SDS011;23314;51.114;6.900;2023-03-01T00:55:37;13.90;;;10.33;;
37451;SDS011;23314;51.114;6.900;2023-03-01T00:58:02;17.10;;;10.40;;
37451;SDS011;23314;51.114;6.900;2023-03-01T01:00:27;15.17;;;10.60;;
37451;SDS011;23314;51.114;6.900;2023-03-01T01:02:53;13.33;;;10.70;;
37451;SDS011;23314;51.114;6.900;2023-03-01T01:05:18;17.33;;;10.67;;
37451;SDS011;23314;51.114;6.900;2023-03-01T01:07:45;15.87;;;11.20;;
37451;SDS011;23314;51.114;6.900;2023-03-01T01:10:11;14.67;;;10.87;;
37451;SDS011;23314;51.114;6.900;2023-03-01T01:12:41;15.57;;;11.20;;
37451;SDS011;23314;51.114;6.900;2023-03-01T01:15:08;18.67;;;10.40;;
37451;SDS011;23314;51.114;6.900;2023-03-01T01:17:33;17.07;;;11.10;;
37451;SDS011;23314;51.114;6.900;2023-03-01T01:19:58;16.13;;;10.83;;
37451;SDS011;23314;51.114;6.900;2023-03-01T01:22:24;19.60;;;11.03;;
37451;SDS011;23314;51.114;6.900;2023-03-01T01:24:49;16.90;;;11.03;;
37451;SDS011;23314;51.114;6.900;2023-03-01T01:27:14;16.20;;;10.37;;
37451;SDS011;23314;51.114;6.900;2023-03-01T01:29:40;17.00;;;11.43;;
37451;SDS011;23314;51.114;6.900;2023-03-01T01:32:06;17.73;;;12.17;;
37451;SDS011;23314;51.114;6.900;2023-03-01T01:34:32;16.00;;;11.83;;
37451;SDS011;23314;51.114;6.900;2023-03-01T01:36:57;15.10;;;11.47;;
37451;SDS011;23314;51.114;6.900;2023-03-01T01:39:27;15.70;;;11.47;;
37451;SDS011;23314;51.114;6.900;2023-03-01T01:41:53;13.80;;;10.77;;
37451;SDS011;23314;51.114;6.900;2023-03-01T01:44:19;16.10;;;11.30;;
37451;SDS011;23314;51.114;6.900;2023-03-01T01:52:00;16.33;;;11.03;;
37451;SDS011;23314;51.114;6.900;2023-03-01T01:55:14;17.60;;;12.00;;
37451;SDS011;23314;51.114;6.900;2023-03-01T01:57:24;17.23;;;11.33;;
37451;SDS011;23314;51.114;6.900;2023-03-01T01:59:53;14.30;;;10.53;;
37451;SDS011;23314;51.114;6.900;2023-03-01T02:02:22;17.77;;;11.23;;
37451;SDS011;23314;51.114;6.900;2023-03-01T02:04:49;18.20;;;11.90;;
37451;SDS011;23314;51.114;6.900;2023-03-01T02:07:18;16.10;;;10.40;;
37451;SDS011;23314;51.114;6.900;2023-03-01T02:09:47;20.07;;;12.20;;
37451;SDS011;23314;51.114;6.900;2023-03-01T02:12:14;18.63;;;12.00;;
37451;SDS011;23314;51.114;6.900;2023-03-01T02:14:42;15.23;;;11.80;;
37451;SDS011;23314;51.114;6.900;2023-03-01T02:17:07;16.10;;;11.10;;
37451;SDS011;23314;51.114;6.900;2023-03-01T02:22:32;17.30;;;11.27;;
37451;SDS011;23314;51.114;6.900;2023-03-01T02:30:33;15.47;;;11.93;;
37451;SDS011;23314;51.114;6.900;2023-03-01T02:32:59;18.80;;;11.93;;
37451;SDS011;23314;51.114;6.900;2023-03-01T02:35:36;18.03;;;11.87;;
37451;SDS011;23314;51.114;6.900;2023-03-01T02:38:05;19.33;;;11.50;;
37451;SDS011;23314;51.114;6.900;2023-03-01T02:40:33;16.80;;;12.23;;
37451;SDS011;23314;51.114;6.900;2023-03-01T02:43:00;26.23;;;11.57;;
37451;SDS011;23314;51.114;6.900;2023-03-01T02:45:27;15.30;;;11.37;;
37451;SDS011;23314;51.114;6.900;2023-03-01T02:47:53;16.07;;;11.57;;
37451;SDS011;23314;51.114;6.900;2023-03-01T02:50:37;16.70;;;11.90;;
37451;SDS011;23314;51.114;6.900;2023-03-01T02:53:16;18.80;;;11.80;;
37451;SDS011;23314;51.114;6.900;2023-03-01T02:55:46;19.87;;;12.30;;
37451;SDS011;23314;51.114;6.900;2023-03-01T02:58:12;16.13;;;11.23;;
37451;SDS011;23314;51.114;6.900;2023-03-01T03:00:39;15.70;;;11.53;;
37451;SDS011;23314;51.114;6.900;2023-03-01T03:03:19;16.17;;;12.43;;
37451;SDS011;23314;51.114;6.900;2023-03-01T03:05:46;17.33;;;12.37;;
37451;SDS011;23314;51.114;6.900;2023-03-01T03:08:13;15.40;;;12.07;;
37451;SDS011;23314;51.114;6.900;2023-03-01T03:10:41;16.07;;;11.63;;
37451;SDS011;23314;51.114;6.900;2023-03-01T03:13:14;17.13;;;12.13;;
37451;SDS011;23314;51.114;6.900;2023-03-01T03:15:40;15.43;;;11.97;;
37451;SDS011;23314;51.114;6.900;2023-03-01T03:18:08;15.53;;;11.47;;
37451;SDS011;23314;51.114;6.900;2023-03-01T03:20:35;19.57;;;12.63;;
37451;SDS011;23314;51.114;6.900;2023-03-01T03:23:01;16.27;;;12.30;;
37451;SDS011;23314;51.114;6.900;2023-03-01T03:25:27;16.87;;;11.73;;
37451;SDS011;23314;51.114;6.900;2023-03-01T03:27:54;17.03;;;11.83;;
37451;SDS011;23314;51.114;6.900;2023-03-01T03:30:21;18.10;;;12.37;;
37451;SDS011;23314;51.114;6.900;2023-03-01T03:32:49;21.13;;;12.57;;
37451;SDS011;23314;51.114;6.900;2023-03-01T03:35:19;19.07;;;12.33;;
37451;SDS011;23314;51.114;6.900;2023-03-01T03:37:50;16.47;;;12.63;;
37451;SDS011;23314;51.114;6.900;2023-03-01T03:40:32;18.87;;;12.63;;
37451;SDS011;23314;51.114;6.900;2023-03-01T03:43:05;17.63;;;12.20;;
37451;SDS011;23314;51.114;6.900;2023-03-01T03:45:32;18.40;;;12.40;;
37451;SDS011;23314;51.114;6.900;2023-03-01T03:47:58;19.50;;;12.33;;
37451;SDS011;23314;51.114;6.900;2023-03-01T03:50:24;20.30;;;12.83;;
37451;SDS011;23314;51.114;6.900;2023-03-01T03:52:49;16.10;;;12.37;;
37451;SDS011;23314;51.114;6.900;2023-03-01T03:55:14;17.43;;;12.33;;
37451;SDS011;23314;51.114;6.900;2023-03-01T03:57:44;15.73;;;11.57;;
37451;SDS011;23314;51.114;6.900;2023-03-01T04:00:16;19.07;;;12.53;;
37451;SDS011;23314;51.114;6.900;2023-03-01T04:02:43;16.40;;;12.37;;
37451;SDS011;23314;51.114;6.900;2023-03-01T04:05:11;17.10;;;12.43;;
37451;SDS011;23314;51.114;6.900;2023-03-01T04:07:37;18.00;;;12.30;;
37451;SDS011;23314;51.114;6.900;2023-03-01T04:10:10;19.67;;;12.77;;
37451;SDS011;23314;51.114;6.900;2023-03-01T04:12:38;18.03;;;12.97;;
37451;SDS011;23314;51.114;6.900;2023-03-01T04:15:03;22.50;;;12.23;;
37451;SDS011;23314;51.114;6.900;2023-03-01T04:17:38;16.33;;;12.03;;
37451;SDS011;23314;51.114;6.900;2023-03-01T04:20:10;19.00;;;12.37;;
37451;SDS011;23314;51.114;6.900;2023-03-01T04:22:38;19.30;;;13.00;;
37451;SDS011;23314;51.114;6.900;2023-03-01T04:25:04;17.33;;;13.07;;
37451;SDS011;23314;51.114;6.900;2023-03-01T04:27:32;19.63;;;12.93;;
37451;SDS011;23314;51.114;6.900;2023-03-01T04:29:58;21.03;;;13.60;;
37451;SDS011;23314;51.114;6.900;2023-03-01T04:32:23;21.77;;;13.20;;
37451;SDS011;23314;51.114;6.900;2023-03-01T04:34:49;18.27;;;12.83;;
37451;SDS011;23314;51.114;6.900;2023-03-01T04:37:14;24.53;;;13.57;;
37451;SDS011;23314;51.114;6.900;2023-03-01T04:39:40;18.37;;;13.30;;
37451;SDS011;23314;51.114;6.900;2023-03-01T04:42:13;21.03;;;13.30;;
37451;SDS011;23314;51.114;6.900;2023-03-01T04:44:40;18.23;;;13.23;;
37451;SDS011;23314;51.114;6.900;2023-03-01T04:47:05;16.10;;;12.20;;
37451;SDS011;23314;51.114;6.900;2023-03-01T04:49:31;19.17;;;13.30;;
37451;SDS011;23314;51.114;6.900;2023-03-01T04:51:56;17.07;;;12.77;;
37451;SDS011;23314;51.114;6.900;2023-03-01T04:54:27;20.07;;;13.57;;
37451;SDS011;23314;51.114;6.900;2023-03-01T04:56:53;22.20;;;13.83;;
37451;SDS011;23314;51.114;6.900;2023-03-01T04:59:18;17.67;;;12.70;;
37451;SDS011;23314;51.114;6.900;2023-03-01T05:01:47;18.57;;;12.67;;
37451;SDS011;23314;51.114;6.900;2023-03-01T05:04:13;18.53;;;12.77;;
37451;SDS011;23314;51.114;6.900;2023-03-01T05:06:38;20.87;;;13.77;;
37451;SDS011;23314;51.114;6.900;2023-03-01T05:09:04;21.73;;;13.97;;
37451;SDS011;23314;51.114;6.900;2023-03-01T05:11:30;17.90;;;12.73;;
37451;SDS011;23314;51.114;6.900;2023-03-01T05:13:58;20.10;;;14.00;;
37451;SDS011;23314;51.114;6.900;2023-03-01T05:16:24;22.43;;;14.03;;
37451;SDS011;23314;51.114;6.900;2023-03-01T05:18:49;19.37;;;13.13;;
37451;SDS011;23314;51.114;6.900;2023-03-01T05:21:16;18.97;;;13.40;;
37451;SDS011;23314;51.114;6.900;2023-03-01T05:23:41;18.97;;;13.83;;
37451;SDS011;23314;51.114;6.900;2023-03-01T05:26:07;18.23;;;13.23;;
37451;SDS011;23314;51.114;6.900;2023-03-01T05:28:33;21.57;;;14.60;;
37451;SDS011;23314;51.114;6.900;2023-03-01T05:30:59;19.07;;;12.83;;
37451;SDS011;23314;51.114;6.900;2023-03-01T05:33:25;20.90;;;13.80;;
37451;SDS011;23314;51.114;6.900;2023-03-01T05:35:51;22.27;;;13.93;;
37451;SDS011;23314;51.114;6.900;2023-03-01T05:38:17;18.00;;;13.33;;
37451;SDS011;23314;51.114;6.900;2023-03-01T05:40:45;21.50;;;13.63;;
37451;SDS011;23314;51.114;6.900;2023-03-01T05:43:13;20.03;;;13.77;;
37451;SDS011;23314;51.114;6.900;2023-03-01T05:45:40;20.47;;;13.93;;
37451;SDS011;23314;51.114;6.900;2023-03-01T05:48:07;21.60;;;14.53;;
37451;SDS011;23314;51.114;6.900;2023-03-01T05:50:35;22.97;;;13.93;;
37451;SDS011;23314;51.114;6.900;2023-03-01T05:55:30;21.87;;;14.40;;
37451;SDS011;23314;51.114;6.900;2023-03-01T05:58:04;20.43;;;14.37;;
37451;SDS011;23314;51.114;6.900;2023-03-01T06:00:35;22.40;;;14.60;;
37451;SDS011;23314;51.114;6.900;2023-03-01T06:03:01;23.90;;;13.97;;
37451;SDS011;23314;51.114;6.900;2023-03-01T06:05:27;26.70;;;14.83;;
37451;SDS011;23314;51.114;6.900;2023-03-01T06:07:53;25.27;;;15.30;;
37451;SDS011;23314;51.114;6.900;2023-03-01T06:10:19;24.43;;;15.90;;
37451;SDS011;23314;51.114;6.900;2023-03-01T06:12:45;25.17;;;14.63;;
37451;SDS011;23314;51.114;6.900;2023-03-01T06:15:14;21.93;;;15.40;;
37451;SDS011;23314;51.114;6.900;2023-03-01T06:17:42;28.70;;;16.93;;
37451;SDS011;23314;51.114;6.900;2023-03-01T06:20:09;31.20;;;19.23;;
37451;SDS011;23314;51.114;6.900;2023-03-01T06:22:39;35.27;;;21.60;;
37451;SDS011;23314;51.114;6.900;2023-03-01T06:25:06;30.90;;;19.33;;
37451;SDS011;23314;51.114;6.900;2023-03-01T06:27:32;27.17;;;17.43;;
37451;SDS011;23314;51.114;6.900;2023-03-01T06:29:57;25.37;;;17.97;;
37451;SDS011;23314;51.114;6.900;2023-03-01T06:32:23;29.80;;;17.03;;
37451;SDS011;23314;51.114;6.900;2023-03-01T06:34:49;28.70;;;17.87;;
37451;SDS011;23314;51.114;6.900;2023-03-01T06:37:14;37.37;;;18.90;;
37451;SDS011;23314;51.114;6.900;2023-03-01T06:39:40;35.60;;;17.70;;
37451;SDS011;23314;51.114;6.900;2023-03-01T06:42:05;30.87;;;18.23;;
37451;SDS011;23314;51.114;6.900;2023-03-01T06:44:30;33.73;;;17.70;;
37451;SDS011;23314;51.114;6.900;2023-03-01T06:46:56;29.73;;;19.03;;
37451;SDS011;23314;51.114;6.900;2023-03-01T06:49:21;30.00;;;17.47;;
37451;SDS011;23314;51.114;6.900;2023-03-01T06:51:46;32.00;;;18.83;;
37451;SDS011;23314;51.114;6.900;2023-03-01T06:54:12;25.93;;;17.37;;
37451;SDS011;23314;51.114;6.900;2023-03-01T06:56:37;28.10;;;17.47;;
37451;SDS011;23314;51.114;6.900;2023-03-01T06:59:03;24.37;;;16.27;;
37451;SDS011;23314;51.114;6.900;2023-03-01T07:01:29;26.23;;;16.50;;
37451;SDS011;23314;51.114;6.900;2023-03-01T07:03:55;26.30;;;16.53;;
37451;SDS011;23314;51.114;6.900;2023-03-01T07:06:20;23.83;;;16.00;;
37451;SDS011;23314;51.114;6.900;2023-03-01T07:08:46;24.63;;;16.03;;
37451;SDS011;23314;51.114;6.900;2023-03-01T07:11:12;25.50;;;15.10;;
37451;SDS011;23314;51.114;6.900;2023-03-01T07:13:38;26.23;;;15.73;;
37451;SDS011;23314;51.114;6.900;2023-03-01T07:16:03;21.70;;;14.50;;
37451;SDS011;23314;51.114;6.900;2023-03-01T07:18:28;27.03;;;15.43;;
37451;SDS011;23314;51.114;6.900;2023-03-01T07:20:54;20.53;;;14.83;;
37451;SDS011;23314;51.114;6.900;2023-03-01T07:23:19;23.20;;;14.50;;
37451;SDS011;23314;51.114;6.900;2023-03-01T07:25:50;24.40;;;14.87;;
37451;SDS011;23314;51.114;6.900;2023-03-01T07:28:17;23.58;;;16.75;;
37451;SDS011;23314;51.114;6.900;2023-03-01T07:30:42;23.17;;;15.13;;
37451;SDS011;23314;51.114;6.900;2023-03-01T07:33:07;19.83;;;14.40;;
37451;SDS011;23314;51.114;6.900;2023-03-01T07:35:33;19.57;;;15.30;;
37451;SDS011;23314;51.114;6.900;2023-03-01T07:37:58;19.50;;;14.70;;
37451;SDS011;23314;51.114;6.900;2023-03-01T07:40:23;20.73;;;14.73;;
37451;SDS011;23314;51.114;6.900;2023-03-01T07:42:48;20.17;;;15.20;;
37451;SDS011;23314;51.114;6.900;2023-03-01T07:45:14;21.00;;;14.80;;
37451;SDS011;23314;51.114;6.900;2023-03-01T07:47:39;22.53;;;14.23;;
37451;SDS011;23314;51.114;6.900;2023-03-01T07:50:05;18.43;;;15.23;;
37451;SDS011;23314;51.114;6.900;2023-03-01T07:52:30;24.47;;;14.80;;
37451;SDS011;23314;51.114;6.900;2023-03-01T07:54:56;20.43;;;14.20;;
37451;SDS011;23314;51.114;6.900;2023-03-01T07:57:22;19.73;;;14.20;;
37451;SDS011;23314;51.114;6.900;2023-03-01T07:59:47;26.23;;;15.43;;
37451;SDS011;23314;51.114;6.900;2023-03-01T08:02:13;22.57;;;14.67;;
37451;SDS011;23314;51.114;6.900;2023-03-01T08:04:40;21.70;;;13.10;;
37451;SDS011;23314;51.114;6.900;2023-03-01T08:07:05;27.27;;;14.53;;
37451;SDS011;23314;51.114;6.900;2023-03-01T08:09:31;23.57;;;13.97;;
37451;SDS011;23314;51.114;6.900;2023-03-01T08:11:56;19.70;;;14.30;;
37451;SDS011;23314;51.114;6.900;2023-03-01T08:14:24;22.83;;;14.80;;
37451;SDS011;23314;51.114;6.900;2023-03-01T08:16:49;17.13;;;13.37;;
37451;SDS011;23314;51.114;6.900;2023-03-01T08:19:15;19.77;;;14.03;;
37451;SDS011;23314;51.114;6.900;2023-03-01T08:21:40;23.90;;;15.43;;
37451;SDS011;23314;51.114;6.900;2023-03-01T08:24:06;21.40;;;13.23;;
37451;SDS011;23314;51.114;6.900;2023-03-01T08:26:32;21.63;;;13.93;;
37451;SDS011;23314;51.114;6.900;2023-03-01T08:28:59;25.00;;;13.97;;
37451;SDS011;23314;51.114;6.900;2023-03-01T08:31:29;16.47;;;12.73;;
37451;SDS011;23314;51.114;6.900;2023-03-01T08:33:59;18.13;;;13.10;;
37451;SDS011;23314;51.114;6.900;2023-03-01T08:36:26;15.53;;;12.53;;
37451;SDS011;23314;51.114;6.900;2023-03-01T08:38:53;21.13;;;12.73;;
37451;SDS011;23314;51.114;6.900;2023-03-01T08:41:19;18.27;;;12.47;;
37451;SDS011;23314;51.114;6.900;2023-03-01T08:43:44;18.83;;;12.37;;
37451;SDS011;23314;51.114;6.900;2023-03-01T08:46:10;18.80;;;12.30;;
37451;SDS011;23314;51.114;6.900;2023-03-01T08:48:36;18.83;;;12.10;;
37451;SDS011;23314;51.114;6.900;2023-03-01T08:51:15;19.00;;;12.83;;
37451;SDS011;23314;51.114;6.900;2023-03-01T08:53:42;22.17;;;12.47;;
37451;SDS011;23314;51.114;6.900;2023-03-01T08:56:08;18.73;;;13.00;;
37451;SDS011;23314;51.114;6.900;2023-03-01T08:58:34;16.77;;;11.63;;
37451;SDS011;23314;51.114;6.900;2023-03-01T09:01:00;18.83;;;11.50;;
37451;SDS011;23314;51.114;6.900;2023-03-01T09:03:25;16.13;;;11.57;;
37451;SDS011;23314;51.114;6.900;2023-03-01T09:05:51;19.07;;;11.50;;
37451;SDS011;23314;51.114;6.900;2023-03-01T09:08:17;14.63;;;11.60;;
37451;SDS011;23314;51.114;6.900;2023-03-01T09:10:43;15.30;;;11.70;;
37451;SDS011;23314;51.114;6.900;2023-03-01T09:13:09;13.10;;;10.73;;
37451;SDS011;23314;51.114;6.900;2023-03-01T09:15:36;17.80;;;11.30;;
37451;SDS011;23314;51.114;6.900;2023-03-01T09:18:02;17.93;;;11.20;;
37451;SDS011;23314;51.114;6.900;2023-03-01T09:20:27;17.43;;;11.13;;
37451;SDS011;23314;51.114;6.900;2023-03-01T09:22:53;16.63;;;10.80;;
37451;SDS011;23314;51.114;6.900;2023-03-01T09:25:18;14.23;;;10.47;;
37451;SDS011;23314;51.114;6.900;2023-03-01T09:27:43;12.77;;;9.37;;
37451;SDS011;23314;51.114;6.900;2023-03-01T09:30:09;12.00;;;9.80;;
37451;SDS011;23314;51.114;6.900;2023-03-01T09:32:34;14.00;;;9.47;;
37451;SDS011;23314;51.114;6.900;2023-03-01T09:35:00;13.40;;;9.77;;
37451;SDS011;23314;51.114;6.900;2023-03-01T09:37:32;16.83;;;10.10;;
37451;SDS011;23314;51.114;6.900;2023-03-01T09:39:58;16.23;;;10.47;;
37451;SDS011;23314;51.114;6.900;2023-03-01T09:42:24;16.07;;;10.40;;
37451;SDS011;23314;51.114;6.900;2023-03-01T09:45:00;14.53;;;10.30;;
37451;SDS011;23314;51.114;6.900;2023-03-01T09:47:29;18.63;;;10.20;;
37451;SDS011;23314;51.114;6.900;2023-03-01T09:50:12;14.20;;;10.53;;
37451;SDS011;23314;51.114;6.900;2023-03-01T09:52:54;14.23;;;10.93;;
37451;SDS011;23314;51.114;6.900;2023-03-01T09:55:30;13.63;;;10.83;;
37451;SDS011;23314;51.114;6.900;2023-03-01T10:00:52;14.23;;;10.73;;
37451;SDS011;23314;51.114;6.900;2023-03-01T10:08:33;15.40;;;10.50;;
37451;SDS011;23314;51.114;6.900;2023-03-01T10:11:04;13.20;;;10.77;;
37451;SDS011;23314;51.114;6.900;2023-03-01T10:13:46;12.80;;;10.40;;
37451;SDS011;23314;51.114;6.900;2023-03-01T10:17:02;14.17;;;10.23;;
37451;SDS011;23314;51.114;6.900;2023-03-01T10:19:49;13.97;;;10.07;;
37451;SDS011;23314;51.114;6.900;2023-03-01T10:22:30;12.80;;;9.53;;
37451;SDS011;23314;51.114;6.900;2023-03-01T10:24:57;16.23;;;10.13;;
37451;SDS011;23314;51.114;6.900;2023-03-01T10:27:25;14.93;;;9.93;;
37451;SDS011;23314;51.114;6.900;2023-03-01T10:30:02;13.67;;;10.20;;
37451;SDS011;23314;51.114;6.900;2023-03-01T10:32:36;18.47;;;11.00;;
37451;SDS011;23314;51.114;6.900;2023-03-01T10:35:14;17.43;;;10.60;;
37451;SDS011;23314;51.114;6.900;2023-03-01T10:37:46;13.47;;;10.23;;
37451;SDS011;23314;51.114;6.900;2023-03-01T10:40:22;12.43;;;9.03;;
37451;SDS011;23314;51.114;6.900;2023-03-01T10:42:48;16.13;;;8.93;;
37451;SDS011;23314;51.114;6.900;2023-03-01T10:45:16;11.13;;;8.77;;
37451;SDS011;23314;51.114;6.900;2023-03-01T10:48:05;10.27;;;8.77;;
37451;SDS011;23314;51.114;6.900;2023-03-01T10:50:44;10.67;;;8.60;;
37451;SDS011;23314;51.114;6.900;2023-03-01T10:53:28;11.30;;;8.87;;
37451;SDS011;23314;51.114;6.900;2023-03-01T10:56:01;10.30;;;9.20;;
37451;SDS011;23314;51.114;6.900;2023-03-01T10:58:27;12.20;;;9.13;;
37451;SDS011;23314;51.114;6.900;2023-03-01T11:00:55;13.07;;;9.23;;
37451;SDS011;23314;51.114;6.900;2023-03-01T11:03:27;13.20;;;9.70;;
37451;SDS011;23314;51.114;6.900;2023-03-01T11:06:06;13.13;;;9.53;;
37451;SDS011;23314;51.114;6.900;2023-03-01T11:08:47;12.03;;;8.60;;
37451;SDS011;23314;51.114;6.900;2023-03-01T11:16:24;10.90;;;9.33;;
37451;SDS011;23314;51.114;6.900;2023-03-01T11:18:59;12.43;;;8.23;;
37451;SDS011;23314;51.114;6.900;2023-03-01T11:21:29;12.53;;;8.33;;
37451;SDS011;23314;51.114;6.900;2023-03-01T11:23:59;13.63;;;9.53;;
37451;SDS011;23314;51.114;6.900;2023-03-01T11:26:26;11.17;;;9.33;;
37451;SDS011;23314;51.114;6.900;2023-03-01T11:28:54;10.20;;;9.00;;
37451;SDS011;23314;51.114;6.900;2023-03-01T11:31:23;13.03;;;9.40;;
37451;SDS011;23314;51.114;6.900;2023-03-01T11:36:41;13.73;;;10.17;;
37451;SDS011;23314;51.114;6.900;2023-03-01T11:39:18;12.37;;;9.40;;
37451;SDS011;23314;51.114;6.900;2023-03-01T11:42:06;14.60;;;9.63;;
37451;SDS011;23314;51.114;6.900;2023-03-01T11:44:37;11.57;;;9.77;;
37451;SDS011;23314;51.114;6.900;2023-03-01T11:52:48;10.53;;;9.30;;
37451;SDS011;23314;51.114;6.900;2023-03-01T11:55:25;10.33;;;9.27;;
37451;SDS011;23314;51.114;6.900;2023-03-01T12:09:31;10.00;;;8.50;;
37451;SDS011;23314;51.114;6.900;2023-03-01T12:12:24;12.63;;;9.07;;
37451;SDS011;23314;51.114;6.900;2023-03-01T12:15:01;12.83;;;9.10;;
37451;SDS011;23314;51.114;6.900;2023-03-01T12:23:17;10.80;;;8.60;;
37451;SDS011;23314;51.114;6.900;2023-03-01T12:25:57;11.20;;;9.27;;
37451;SDS011;23314;51.114;6.900;2023-03-01T12:45:51;11.23;;;9.53;;
37451;SDS011;23314;51.114;6.900;2023-03-01T12:48:40;14.87;;;9.63;;
37451;SDS011;23314;51.114;6.900;2023-03-01T12:51:14;11.33;;;9.20;;
37451;SDS011;23314;51.114;6.900;2023-03-01T12:53:44;12.37;;;9.90;;
37451;SDS011;23314;51.114;6.900;2023-03-01T12:56:13;12.80;;;10.17;;
37451;SDS011;23314;51.114;6.900;2023-03-01T12:58:52;11.57;;;9.50;;
37451;SDS011;23314;51.114;6.900;2023-03-01T13:01:40;10.87;;;9.20;;
37451;SDS011;23314;51.114;6.900;2023-03-01T13:04:18;14.67;;;9.80;;
37451;SDS011;23314;51.114;6.900;2023-03-01T13:07:07;14.67;;;9.37;;
37451;SDS011;23314;51.114;6.900;2023-03-01T13:12:46;11.70;;;9.30;;
37451;SDS011;23314;51.114;6.900;2023-03-01T13:17:47;9.23;;;7.90;;
37451;SDS011;23314;51.114;6.900;2023-03-01T13:20:17;12.67;;;8.50;;
37451;SDS011;23314;51.114;6.900;2023-03-01T13:23:25;9.50;;;8.13;;
37451;SDS011;23314;51.114;6.900;2023-03-01T13:30:59;10.50;;;8.33;;
37451;SDS011;23314;51.114;6.900;2023-03-01T13:35:51;17.33;;;8.40;;
37451;SDS011;23314;51.114;6.900;2023-03-01T13:44:18;11.90;;;8.13;;
37451;SDS011;23314;51.114;6.900;2023-03-01T13:46:51;13.93;;;7.93;;
37451;SDS011;23314;51.114;6.900;2023-03-01T13:49:20;10.50;;;7.27;;
37451;SDS011;23314;51.114;6.900;2023-03-01T13:51:51;10.03;;;8.10;;
37451;SDS011;23314;51.114;6.900;2023-03-01T13:54:22;9.50;;;7.80;;
37451;SDS011;23314;51.114;6.900;2023-03-01T13:56:53;11.17;;;8.70;;
37451;SDS011;23314;51.114;6.900;2023-03-01T13:59:20;11.17;;;7.83;;
37451;SDS011;23314;51.114;6.900;2023-03-01T14:01:53;10.23;;;8.30;;
37451;SDS011;23314;51.114;6.900;2023-03-01T14:04:27;12.73;;;8.90;;
37451;SDS011;23314;51.114;6.900;2023-03-01T14:07:12;11.10;;;8.80;;
37451;SDS011;23314;51.114;6.900;2023-03-01T14:09:42;11.10;;;8.13;;
37451;SDS011;23314;51.114;6.900;2023-03-01T14:20:09;11.27;;;8.45;;
37451;SDS011;23314;51.114;6.900;2023-03-01T14:22:40;9.73;;;8.03;;
37451;SDS011;23314;51.114;6.900;2023-03-01T14:25:19;12.03;;;8.70;;
37451;SDS011;23314;51.114;6.900;2023-03-01T14:28:02;12.00;;;8.23;;
37451;SDS011;23314;51.114;6.900;2023-03-01T14:30:51;11.47;;;8.10;;
37451;SDS011;23314;51.114;6.900;2023-03-01T14:35:51;11.17;;;8.17;;
37451;SDS011;23314;51.114;6.900;2023-03-01T14:38:20;9.03;;;8.13;;
37451;SDS011;23314;51.114;6.900;2023-03-01T14:40:55;13.13;;;8.80;;
37451;SDS011;23314;51.114;6.900;2023-03-01T14:43:23;12.07;;;7.50;;
37451;SDS011;23314;51.114;6.900;2023-03-01T14:45:50;10.43;;;7.67;;
37451;SDS011;23314;51.114;6.900;2023-03-01T14:48:16;9.80;;;7.87;;
37451;SDS011;23314;51.114;6.900;2023-03-01T14:50:43;11.37;;;8.47;;
37451;SDS011;23314;51.114;6.900;2023-03-01T14:53:15;13.53;;;8.27;;
37451;SDS011;23314;51.114;6.900;2023-03-01T14:55:44;12.90;;;8.87;;
37451;SDS011;23314;51.114;6.900;2023-03-01T14:58:13;12.43;;;8.70;;
37451;SDS011;23314;51.114;6.900;2023-03-01T15:00:48;10.73;;;7.67;;
37451;SDS011;23314;51.114;6.900;2023-03-01T15:03:23;12.50;;;8.20;;
37451;SDS011;23314;51.114;6.900;2023-03-01T15:06:09;10.73;;;7.80;;
37451;SDS011;23314;51.114;6.900;2023-03-01T15:08:37;9.23;;;7.20;;
37451;SDS011;23314;51.114;6.900;2023-03-01T15:13:44;13.13;;;8.13;;
37451;SDS011;23314;51.114;6.900;2023-03-01T15:16:12;11.23;;;8.03;;
37451;SDS011;23314;51.114;6.900;2023-03-01T15:18:43;10.93;;;7.93;;
37451;SDS011;23314;51.114;6.900;2023-03-01T15:21:18;11.73;;;7.93;;
37451;SDS011;23314;51.114;6.900;2023-03-01T15:24:08;11.00;;;8.03;;
37451;SDS011;23314;51.114;6.900;2023-03-01T15:26:49;7.93;;;6.90;;
37451;SDS011;23314;51.114;6.900;2023-03-01T15:29:21;12.37;;;8.30;;
37451;SDS011;23314;51.114;6.900;2023-03-01T15:34:48;8.77;;;6.60;;
37451;SDS011;23314;51.114;6.900;2023-03-01T15:40:22;7.87;;;6.77;;
37451;SDS011;23314;51.114;6.900;2023-03-01T15:43:01;9.63;;;6.47;;
37451;SDS011;23314;51.114;6.900;2023-03-01T15:45:29;8.10;;;6.53;;
37451;SDS011;23314;51.114;6.900;2023-03-01T15:47:58;9.57;;;6.67;;
37451;SDS011;23314;51.114;6.900;2023-03-01T15:50:29;8.87;;;6.87;;
37451;SDS011;23314;51.114;6.900;2023-03-01T15:52:58;10.23;;;7.10;;
37451;SDS011;23314;51.114;6.900;2023-03-01T15:55:25;11.13;;;6.70;;
37451;SDS011;23314;51.114;6.900;2023-03-01T15:57:59;11.27;;;7.33;;
37451;SDS011;23314;51.114;6.900;2023-03-01T16:00:30;8.70;;;6.27;;
37451;SDS011;23314;51.114;6.900;2023-03-01T16:02:55;9.43;;;7.10;;
37451;SDS011;23314;51.114;6.900;2023-03-01T16:05:25;8.17;;;6.10;;
37451;SDS011;23314;51.114;6.900;2023-03-01T16:07:53;8.97;;;6.50;;
37451;SDS011;23314;51.114;6.900;2023-03-01T16:10:19;10.53;;;6.90;;
37451;SDS011;23314;51.114;6.900;2023-03-01T16:12:44;8.43;;;6.50;;
37451;SDS011;23314;51.114;6.900;2023-03-01T16:15:33;6.80;;;5.70;;
37451;SDS011;23314;51.114;6.900;2023-03-01T16:17:59;10.30;;;6.53;;
37451;SDS011;23314;51.114;6.900;2023-03-01T16:20:25;10.57;;;6.67;;
37451;SDS011;23314;51.114;6.900;2023-03-01T16:22:50;12.03;;;6.57;;
37451;SDS011;23314;51.114;6.900;2023-03-01T16:25:17;13.20;;;7.10;;
37451;SDS011;23314;51.114;6.900;2023-03-01T16:27:44;9.13;;;6.87;;
37451;SDS011;23314;51.114;6.900;2023-03-01T16:30:13;9.70;;;6.70;;